createdAt,value
2019-02-21T00:00:59.772Z,64.43
2019-02-21T00:03:26.122Z,64.56
2019-02-21T00:05:52.424Z,64.65
2019-02-21T00:08:18.831Z,64.48
2019-02-21T00:10:46.150Z,64.33
2019-02-21T00:13:13.003Z,64.28
2019-02-21T00:15:39.328Z,63.93
2019-02-21T00:18:05.857Z,64.27
2019-02-21T00:20:34.857Z,64.63
2019-02-21T00:23:04.496Z,64.47
2019-02-21T00:25:30.922Z,64.37
2019-02-21T00:27:57.098Z,64.14
2019-02-21T00:30:23.221Z,64.41
2019-02-21T00:32:49.340Z,64.51
2019-02-21T00:35:15.624Z,64.69
2019-02-21T00:37:41.878Z,64.76
2019-02-21T00:40:08.135Z,64.85
2019-02-21T00:42:34.285Z,65.06
2019-02-21T00:45:00.432Z,65.17
2019-02-21T00:47:31.353Z,65.34
2019-02-21T00:49:57.426Z,65.27
2019-02-21T00:52:23.554Z,65.39
2019-02-21T00:54:49.774Z,65.44
2019-02-21T00:57:15.923Z,65.30
2019-02-21T00:59:43.395Z,65.35
2019-02-21T01:02:09.763Z,65.52
2019-02-21T01:04:36.067Z,65.47
2019-02-21T01:07:04.401Z,65.59
2019-02-21T01:09:33.108Z,65.34
2019-02-21T01:12:00.338Z,65.56
2019-02-21T01:14:32.167Z,65.88
2019-02-21T01:16:58.377Z,66.11
2019-02-21T01:19:24.630Z,66.07
2019-02-21T01:21:50.830Z,65.94
2019-02-21T01:24:17.170Z,66.13
2019-02-21T01:26:43.543Z,66.21
2019-02-21T01:29:10.444Z,66.21
2019-02-21T01:31:36.808Z,66.39
2019-02-21T01:34:04.522Z,66.27
2019-02-21T01:36:31.905Z,66.00
2019-02-21T01:38:58.269Z,65.76
2019-02-21T01:41:25.500Z,65.72
2019-02-21T01:43:51.731Z,65.82
2019-02-21T01:46:17.962Z,65.88
2019-02-21T01:48:44.177Z,65.95
2019-02-21T01:51:10.403Z,66.03
2019-02-21T01:53:36.552Z,66.40
2019-02-21T01:56:05.157Z,66.35
2019-02-21T01:58:31.422Z,66.58
2019-02-21T02:01:08.070Z,66.44
2019-02-21T02:03:34.233Z,66.43
2019-02-21T02:06:04.561Z,66.57
2019-02-21T02:08:30.977Z,66.65
2019-02-21T02:10:57.387Z,66.52
2019-02-21T02:13:24.978Z,66.85
2019-02-21T02:15:51.492Z,67.23
2019-02-21T02:18:18.316Z,67.31
2019-02-21T02:20:48.563Z,67.48
2019-02-21T02:23:14.887Z,67.06
2019-02-21T02:25:41.099Z,67.48
2019-02-21T02:28:07.221Z,67.37
2019-02-21T02:30:33.757Z,67.25
2019-02-21T02:33:00.006Z,67.62
2019-02-21T02:35:32.269Z,67.52
2019-02-21T02:37:58.493Z,67.84
2019-02-21T02:40:24.821Z,67.74
2019-02-21T02:42:51.154Z,67.45
2019-02-21T02:45:17.276Z,67.78
2019-02-21T02:47:43.497Z,68.25
2019-02-21T02:50:12.579Z,68.70
2019-02-21T02:52:38.723Z,69.09
2019-02-21T02:55:05.186Z,69.05
2019-02-21T02:57:31.303Z,68.76
2019-02-21T03:00:03.997Z,69.09
2019-02-21T03:02:30.478Z,69.03
2019-02-21T03:04:56.617Z,68.71
2019-02-21T03:07:23.266Z,68.67
2019-02-21T03:09:49.378Z,68.90
2019-02-21T03:12:15.696Z,68.93
2019-02-21T03:14:41.805Z,69.27
2019-02-21T03:17:07.984Z,69.44
2019-02-21T03:19:35.289Z,69.44
2019-02-21T03:22:04.838Z,69.56
2019-02-21T03:24:31.139Z,69.61
2019-02-21T03:26:57.395Z,69.85
2019-02-21T03:29:23.609Z,69.50
2019-02-21T03:31:54.988Z,69.32
2019-02-21T03:34:18.002Z,69.33
2019-02-21T03:36:44.191Z,69.11
2019-02-21T03:39:10.416Z,69.00
2019-02-21T03:41:36.669Z,68.92
2019-02-21T03:44:05.486Z,69.06
2019-02-21T03:46:31.796Z,69.36
2019-02-21T03:48:58.035Z,69.18
2019-02-21T03:51:24.169Z,69.23
2019-02-21T03:53:50.468Z,69.12
2019-02-21T03:56:16.745Z,69.27
2019-02-21T03:58:43.583Z,69.08
2019-02-21T04:01:09.891Z,68.95
2019-02-21T04:03:36.203Z,69.01
2019-02-21T04:06:02.557Z,68.85
2019-02-21T04:08:28.896Z,69.05
2019-02-21T04:10:55.201Z,69.13
2019-02-21T04:13:21.641Z,69.18
2019-02-21T04:15:47.917Z,69.29
2019-02-21T04:18:14.302Z,69.39
2019-02-21T04:20:40.595Z,69.26
2019-02-21T04:23:06.858Z,69.32
2019-02-21T04:25:32.972Z,69.18
2019-02-21T04:27:59.322Z,69.13
2019-02-21T04:30:25.556Z,69.20
2019-02-21T04:32:51.705Z,69.00
2019-02-21T04:35:18.196Z,69.08
2019-02-21T04:37:44.418Z,69.24
2019-02-21T04:40:10.613Z,69.30
2019-02-21T04:42:37.029Z,69.32
2019-02-21T04:45:04.145Z,69.14
2019-02-21T04:47:30.328Z,69.24
2019-02-21T04:49:56.663Z,69.19
2019-02-21T04:52:23.019Z,69.19
2019-02-21T04:54:49.379Z,69.44
2019-02-21T04:57:15.653Z,69.66
2019-02-21T04:59:42.125Z,69.64
2019-02-21T05:02:08.397Z,69.78
2019-02-21T05:04:34.632Z,69.87
2019-02-21T05:07:00.936Z,70.12
2019-02-21T05:09:27.486Z,70.56
2019-02-21T05:11:53.648Z,70.62
2019-02-21T05:14:19.866Z,70.37
2019-02-21T05:16:46.119Z,70.50
2019-02-21T05:19:12.245Z,70.63
2019-02-21T05:21:38.569Z,70.74
2019-02-21T05:24:04.931Z,71.10
2019-02-21T05:26:39.367Z,70.87
2019-02-21T05:29:07.533Z,71.01
2019-02-21T05:31:47.692Z,70.89
2019-02-21T05:34:15.731Z,70.93
2019-02-21T05:37:00.377Z,71.59
2019-02-21T05:39:46.529Z,71.32
2019-02-21T05:42:14.698Z,71.72
2019-02-21T05:44:48.449Z,71.90
2019-02-21T05:47:22.657Z,72.07
2019-02-21T05:50:03.148Z,71.91
2019-02-21T05:52:31.188Z,71.87
2019-02-21T05:54:59.238Z,71.86
2019-02-21T05:57:42.345Z,71.90
2019-02-21T06:00:25.760Z,71.78
2019-02-21T06:02:56.480Z,71.92
2019-02-21T06:05:24.638Z,72.25
2019-02-21T06:08:09.175Z,72.21
2019-02-21T06:10:43.365Z,72.65
2019-02-21T06:13:17.505Z,72.73
2019-02-21T06:15:48.875Z,72.93
2019-02-21T06:18:26.090Z,72.72
2019-02-21T06:21:09.415Z,72.26
2019-02-21T06:23:49.531Z,72.59
2019-02-21T06:26:17.583Z,72.56
2019-02-21T06:28:53.443Z,72.90
2019-02-21T06:31:19.663Z,72.86
2019-02-21T06:33:45.751Z,72.98
2019-02-21T06:36:11.967Z,72.70
2019-02-21T06:38:38.080Z,72.86
2019-02-21T06:41:04.179Z,72.71
2019-02-21T06:43:30.293Z,72.58
2019-02-21T06:45:58.055Z,73.01
2019-02-21T06:48:24.402Z,72.98
2019-02-21T06:50:50.519Z,72.85
2019-02-21T06:53:16.687Z,72.50
2019-02-21T06:55:43.215Z,72.88
2019-02-21T06:58:09.533Z,72.71
2019-02-21T07:00:36.842Z,73.07
2019-02-21T07:03:03.180Z,72.84
2019-02-21T07:05:29.382Z,72.45
2019-02-21T07:07:55.602Z,72.20
2019-02-21T07:10:21.702Z,71.97
2019-02-21T07:12:47.952Z,71.85
2019-02-21T07:15:15.148Z,71.59
2019-02-21T07:17:48.769Z,71.56
2019-02-21T07:20:09.525Z,71.75
2019-02-21T07:22:35.798Z,71.93
2019-02-21T07:25:04.698Z,71.96
2019-02-21T07:27:31.822Z,72.41
2019-02-21T07:29:58.063Z,72.31
2019-02-21T07:32:24.266Z,72.11
2019-02-21T07:34:50.483Z,72.15
2019-02-21T07:37:18.885Z,71.96
2019-02-21T07:39:45.426Z,71.68
2019-02-21T07:42:11.529Z,72.24
2019-02-21T07:44:37.831Z,71.87
2019-02-21T07:47:04.017Z,71.51
2019-02-21T07:49:30.139Z,71.29
2019-02-21T07:51:56.343Z,70.94
2019-02-21T07:54:22.590Z,71.17
2019-02-21T07:56:48.970Z,71.00
2019-02-21T07:59:15.184Z,70.80
2019-02-21T08:01:41.496Z,70.65
2019-02-21T08:04:07.903Z,70.95
2019-02-21T08:06:34.087Z,70.66
2019-02-21T08:09:00.298Z,70.35
2019-02-21T08:11:26.701Z,70.49
2019-02-21T08:13:53.000Z,70.44
2019-02-21T08:16:19.364Z,70.13
2019-02-21T08:18:45.576Z,70.13
2019-02-21T08:21:12.988Z,70.21
2019-02-21T08:23:49.699Z,70.20
2019-02-21T08:26:07.204Z,69.98
2019-02-21T08:28:33.369Z,69.69
2019-02-21T08:30:59.824Z,69.53
2019-02-21T08:33:30.813Z,68.95
2019-02-21T08:35:57.929Z,69.09
2019-02-21T08:38:24.436Z,69.15
2019-02-21T08:40:53.229Z,68.74
2019-02-21T08:43:20.033Z,67.95
2019-02-21T08:45:46.271Z,67.46
2019-02-21T08:48:13.473Z,67.86
2019-02-21T08:50:40.152Z,67.78
2019-02-21T08:53:06.475Z,67.17
2019-02-21T08:55:32.735Z,66.63
2019-02-21T08:57:59.073Z,66.89
2019-02-21T09:00:25.211Z,66.55
2019-02-21T09:02:51.507Z,66.56
2019-02-21T09:05:17.950Z,66.40
2019-02-21T09:07:46.442Z,66.73
2019-02-21T09:10:12.712Z,66.28
2019-02-21T09:12:39.212Z,66.50
2019-02-21T09:15:08.948Z,66.30
2019-02-21T09:17:35.441Z,66.57
2019-02-21T09:20:01.706Z,66.73
2019-02-21T09:22:28.018Z,66.14
2019-02-21T09:24:54.140Z,66.23
2019-02-21T09:27:20.465Z,65.93
2019-02-21T09:29:46.747Z,65.65
2019-02-21T09:32:12.906Z,65.06
2019-02-21T09:34:39.288Z,64.67
2019-02-21T09:37:05.668Z,64.40
2019-02-21T09:39:31.907Z,64.49
2019-02-21T09:41:58.044Z,65.20
2019-02-21T09:44:27.390Z,65.03
2019-02-21T09:46:53.511Z,64.51
2019-02-21T09:49:19.789Z,64.82
2019-02-21T09:51:45.965Z,64.92
2019-02-21T09:54:12.076Z,66.23
2019-02-21T09:56:39.503Z,66.26
2019-02-21T09:59:05.792Z,65.76
2019-02-21T10:01:31.999Z,66.36
2019-02-21T10:03:58.119Z,66.42
2019-02-21T10:06:25.553Z,66.13
2019-02-21T10:08:51.944Z,66.38
2019-02-21T10:11:18.321Z,66.69
2019-02-21T10:13:44.732Z,66.96
2019-02-21T10:16:12.015Z,66.34
2019-02-21T10:18:38.222Z,67.17
2019-02-21T10:21:04.444Z,66.72
2019-02-21T10:23:30.686Z,66.66
2019-02-21T10:25:57.028Z,66.71
2019-02-21T10:28:23.251Z,66.81
2019-02-21T10:30:49.533Z,66.60
2019-02-21T10:33:15.707Z,66.60
2019-02-21T10:35:42.000Z,66.37
2019-02-21T10:38:08.177Z,66.52
2019-02-21T10:40:35.826Z,65.46
2019-02-21T10:43:07.789Z,65.11
2019-02-21T10:45:34.157Z,65.91
2019-02-21T10:48:05.459Z,65.13
2019-02-21T10:50:31.790Z,65.83
2019-02-21T10:55:30.578Z,66.05
2019-02-21T10:57:56.906Z,65.39
2019-02-21T11:00:31.529Z,63.73
2019-02-21T11:03:04.582Z,64.47
2019-02-21T11:05:30.971Z,65.18
2019-02-21T11:07:57.325Z,65.58
2019-02-21T11:10:27.393Z,65.07
2019-02-21T11:12:54.702Z,64.55
2019-02-21T11:15:22.763Z,64.73
2019-02-21T11:17:49.117Z,65.06
2019-02-21T11:20:19.298Z,64.79
2019-02-21T11:22:45.420Z,64.72
2019-02-21T11:25:13.724Z,64.25
2019-02-21T11:27:40.125Z,64.59
2019-02-21T11:30:15.151Z,63.67
2019-02-21T11:32:41.594Z,64.19
2019-02-21T11:35:07.917Z,64.36
2019-02-21T11:37:43.415Z,62.87
2019-02-21T11:40:09.033Z,63.38
2019-02-21T11:42:35.828Z,63.46
2019-02-21T11:45:15.951Z,62.66
2019-02-21T11:47:42.135Z,61.10
2019-02-21T11:50:10.962Z,61.10
2019-02-21T11:52:41.192Z,61.95
2019-02-21T11:55:10.425Z,61.97
2019-02-21T11:57:36.660Z,61.27
2019-02-21T12:00:10.166Z,61.51
2019-02-21T12:02:38.801Z,61.42
2019-02-21T12:05:17.508Z,60.91
2019-02-21T12:07:41.987Z,60.99
2019-02-21T12:10:15.378Z,61.10
2019-02-21T12:12:41.706Z,61.10
2019-02-21T12:15:17.351Z,61.01
2019-02-21T12:17:43.786Z,61.19
2019-02-21T12:20:15.640Z,61.08
2019-02-21T12:22:48.871Z,61.54
2019-02-21T12:25:22.657Z,61.54
2019-02-21T12:27:52.072Z,61.14
2019-02-21T12:30:19.192Z,61.07
2019-02-21T12:32:45.700Z,61.93
2019-02-21T12:35:12.054Z,61.48
2019-02-21T12:37:38.405Z,61.86
2019-02-21T12:40:15.743Z,61.27
2019-02-21T12:42:42.149Z,61.79
2019-02-21T12:45:11.636Z,61.82
2019-02-21T12:47:49.079Z,61.82
2019-02-21T12:50:09.341Z,61.83
2019-02-21T12:52:35.589Z,62.71
2019-02-21T12:55:05.930Z,62.02
2019-02-21T12:57:32.235Z,62.46
2019-02-21T12:59:58.447Z,63.72
2019-02-21T13:02:24.824Z,63.61
2019-02-21T13:04:51.059Z,63.78
2019-02-21T13:07:17.300Z,63.50
2019-02-21T13:09:43.431Z,62.47
2019-02-21T13:12:17.245Z,62.58
2019-02-21T13:14:43.443Z,62.46
2019-02-21T13:17:09.817Z,62.66
2019-02-21T13:19:36.190Z,62.71
2019-02-21T13:22:13.378Z,63.47
2019-02-21T13:24:39.965Z,62.71
2019-02-21T13:27:06.876Z,62.79
2019-02-21T13:29:33.472Z,63.07
2019-02-21T13:31:59.767Z,62.94
2019-02-21T13:34:26.028Z,62.72
2019-02-21T13:36:52.257Z,62.45
2019-02-21T13:39:18.485Z,63.08
2019-02-21T13:41:44.633Z,62.50
2019-02-21T13:44:11.064Z,61.75
2019-02-21T13:46:40.845Z,61.85
2019-02-21T13:49:08.860Z,61.55
2019-02-21T13:51:44.991Z,61.73
2019-02-21T13:54:11.526Z,61.82
2019-02-21T13:56:37.955Z,62.20
2019-02-21T13:59:08.318Z,61.62
2019-02-21T14:01:34.542Z,63.06
2019-02-21T14:04:13.182Z,61.88
2019-02-21T14:06:39.302Z,61.94
2019-02-21T14:09:09.671Z,62.22
2019-02-21T14:11:36.481Z,62.11
2019-02-21T14:14:02.897Z,62.41
2019-02-21T14:16:29.197Z,62.10
2019-02-21T14:18:56.547Z,62.33
2019-02-21T14:21:22.746Z,62.15
2019-02-21T14:23:48.881Z,61.97
2019-02-21T14:26:15.115Z,62.39
2019-02-21T14:28:42.570Z,63.12
2019-02-21T14:31:08.767Z,61.88
2019-02-21T14:33:35.035Z,62.21
2019-02-21T14:36:01.438Z,61.84
2019-02-21T14:38:28.479Z,62.07
2019-02-21T14:40:54.831Z,62.60
2019-02-21T14:43:21.155Z,62.71
2019-02-21T14:45:47.356Z,61.45
2019-02-21T14:48:13.650Z,61.13
2019-02-21T14:50:40.027Z,62.26
2019-02-21T14:53:06.398Z,61.26
2019-02-21T14:55:32.548Z,59.97
2019-02-21T14:57:59.001Z,59.17
2019-02-21T15:00:27.106Z,58.26
2019-02-21T15:02:53.562Z,58.25
2019-02-21T15:05:19.960Z,57.68
2019-02-21T15:07:46.424Z,57.68
2019-02-21T15:10:14.789Z,57.52
2019-02-21T15:12:41.161Z,57.83
2019-02-21T15:15:16.205Z,58.29
2019-02-21T15:17:42.576Z,58.72
2019-02-21T15:20:10.989Z,58.17
2019-02-21T15:22:37.329Z,59.10
2019-02-21T15:25:05.899Z,59.09
2019-02-21T15:27:32.244Z,59.09
2019-02-21T15:29:58.493Z,59.23
2019-02-21T15:32:24.868Z,59.54
2019-02-21T15:34:51.155Z,58.95
2019-02-21T15:37:17.439Z,59.02
2019-02-21T15:39:43.764Z,59.02
2019-02-21T15:42:09.985Z,59.60
2019-02-21T15:44:36.311Z,59.77
2019-02-21T15:47:02.939Z,60.07
2019-02-21T15:49:29.275Z,59.51
2019-02-21T15:51:55.801Z,59.86
2019-02-21T15:54:22.147Z,59.66
2019-02-21T15:56:48.441Z,59.53
2019-02-21T15:59:14.903Z,59.59
2019-02-21T16:01:47.594Z,59.64
2019-02-21T16:04:09.520Z,60.04
2019-02-21T16:06:37.952Z,60.03
2019-02-21T16:09:15.936Z,60.23
2019-02-21T16:11:34.751Z,59.94
2019-02-21T16:14:03.488Z,60.63
2019-02-21T16:16:29.778Z,60.46
2019-02-21T16:18:58.668Z,59.85
2019-02-21T16:21:24.497Z,59.80
2019-02-21T16:23:50.719Z,60.13
2019-02-21T16:26:16.971Z,60.05
2019-02-21T16:28:43.239Z,60.19
2019-02-21T16:31:09.542Z,60.10
2019-02-21T16:33:36.175Z,59.53
2019-02-21T16:36:03.706Z,60.16
2019-02-21T16:38:30.081Z,60.05
2019-02-21T16:40:56.393Z,59.90
2019-02-21T16:43:23.310Z,60.18
2019-02-21T16:45:53.636Z,59.59
2019-02-21T16:48:17.672Z,60.32
2019-02-21T16:50:43.808Z,61.18
2019-02-21T16:53:10.030Z,60.69
2019-02-21T16:55:36.266Z,60.08
2019-02-21T16:58:05.535Z,61.32
2019-02-21T17:00:42.380Z,61.02
2019-02-21T17:03:00.598Z,60.75
2019-02-21T17:05:27.348Z,60.65
2019-02-21T17:07:53.805Z,60.54
2019-02-21T17:10:20.031Z,61.00
2019-02-21T17:12:46.463Z,60.83
2019-02-21T17:15:14.928Z,60.50
2019-02-21T17:17:41.276Z,60.00
2019-02-21T17:20:11.208Z,60.49
2019-02-21T17:22:37.473Z,61.21
2019-02-21T17:25:06.913Z,60.97
2019-02-21T17:27:33.139Z,61.10
2019-02-21T17:29:59.544Z,61.70
2019-02-21T17:32:26.878Z,62.02
2019-02-21T17:34:53.141Z,61.96
2019-02-21T17:37:24.889Z,62.26
2019-02-21T17:39:47.971Z,62.39
2019-02-21T17:42:15.380Z,63.09
2019-02-21T17:44:41.614Z,63.41
2019-02-21T17:47:07.982Z,63.66
2019-02-21T17:49:34.274Z,63.80
2019-02-21T17:52:00.480Z,64.38
2019-02-21T17:54:27.723Z,64.63
2019-02-21T17:56:54.374Z,65.25
2019-02-21T17:59:20.570Z,65.37
2019-02-21T18:01:47.044Z,65.61
2019-02-21T18:04:13.525Z,66.25
2019-02-21T18:06:40.036Z,66.29
2019-02-21T18:09:06.508Z,66.25
2019-02-21T18:11:34.457Z,66.16
2019-02-21T18:14:00.661Z,66.38
2019-02-21T18:16:26.829Z,66.87
2019-02-21T18:18:53.173Z,67.22
2019-02-21T18:21:19.663Z,67.24
2019-02-21T18:23:45.940Z,67.61
2019-02-21T18:26:14.052Z,67.30
2019-02-21T18:28:40.322Z,66.92
2019-02-21T18:31:20.399Z,67.00
2019-02-21T18:33:46.639Z,67.34
2019-02-21T18:36:12.973Z,67.04
2019-02-21T18:38:39.429Z,66.69
2019-02-21T18:41:06.029Z,67.70
2019-02-21T18:43:32.606Z,67.68
2019-02-21T18:45:59.036Z,67.44
2019-02-21T18:48:25.197Z,67.70
2019-02-21T18:50:51.553Z,67.56
2019-02-21T18:53:17.889Z,66.81
2019-02-21T18:55:44.222Z,67.41
2019-02-21T18:58:10.589Z,67.30
2019-02-21T19:00:36.977Z,67.19
2019-02-21T19:03:03.302Z,67.32
2019-02-21T19:05:36.011Z,67.99
2019-02-21T19:08:05.013Z,68.53
2019-02-21T19:10:26.570Z,70.68
2019-02-21T19:12:53.021Z,71.09
2019-02-21T19:15:20.101Z,71.19
2019-02-21T19:17:46.459Z,72.02
2019-02-21T19:20:14.126Z,72.26
2019-02-21T19:22:40.358Z,73.00
2019-02-21T19:25:10.347Z,73.67
2019-02-21T19:27:37.606Z,74.03
2019-02-21T19:30:32.681Z,74.20
2019-02-21T19:32:59.101Z,74.33
2019-02-21T19:35:25.539Z,74.15
2019-02-21T19:37:52.104Z,74.67
2019-02-21T19:40:18.732Z,74.52
2019-02-21T19:42:45.177Z,74.16
2019-02-21T19:45:12.318Z,73.95
2019-02-21T19:47:38.687Z,73.40
2019-02-21T19:50:07.543Z,73.91
2019-02-21T19:52:35.006Z,74.18
2019-02-21T19:55:01.359Z,74.66
2019-02-21T19:57:28.690Z,74.64
2019-02-21T19:59:54.979Z,75.13
2019-02-21T20:02:21.475Z,75.65
2019-02-21T20:04:47.968Z,76.15
2019-02-21T20:07:14.444Z,76.79
2019-02-21T20:09:40.854Z,76.75
2019-02-21T20:12:07.284Z,77.15
2019-02-21T20:14:33.732Z,76.75
2019-02-21T20:17:00.655Z,76.66
2019-02-21T20:19:26.922Z,76.68
2019-02-21T20:21:54.547Z,76.38
2019-02-21T20:24:21.018Z,76.44
2019-02-21T20:26:47.478Z,76.38
2019-02-21T20:29:13.867Z,76.29
2019-02-21T20:31:40.332Z,76.27
2019-02-21T20:34:06.779Z,75.97
2019-02-21T20:36:33.249Z,76.12
2019-02-21T20:38:59.683Z,75.96
2019-02-21T20:41:25.930Z,76.13
2019-02-21T20:43:52.277Z,76.25
2019-02-21T20:46:30.470Z,76.33
2019-02-21T20:48:56.985Z,76.32
2019-02-21T20:51:23.440Z,76.03
2019-02-21T20:53:51.724Z,76.39
2019-02-21T20:56:18.208Z,76.36
2019-02-21T20:58:44.672Z,76.46
2019-02-21T21:01:12.516Z,76.33
2019-02-21T21:06:12.902Z,76.67
2019-02-21T21:08:43.146Z,76.51
2019-02-21T21:11:07.773Z,76.79
2019-02-21T21:13:34.449Z,76.75
2019-02-21T21:18:41.588Z,77.85
2019-02-21T21:21:08.227Z,78.22
2019-02-21T21:23:39.115Z,78.28
2019-02-21T21:26:07.106Z,78.49
2019-02-21T21:28:33.615Z,78.21
2019-02-21T21:30:59.883Z,78.37
2019-02-21T21:33:27.302Z,78.43
2019-02-21T21:35:54.505Z,78.13
2019-02-21T21:40:53.385Z,78.28
2019-02-21T21:43:19.578Z,78.27
2019-02-21T21:45:46.014Z,78.05
2019-02-21T21:48:12.226Z,78.48
2019-02-21T21:50:38.483Z,78.24
2019-02-21T21:53:04.945Z,78.41
2019-02-21T21:55:31.290Z,78.31
2019-02-21T21:58:04.133Z,78.17
2019-02-21T22:00:37.431Z,78.29
2019-02-21T22:03:05.082Z,78.23
2019-02-21T22:08:06.439Z,78.57
2019-02-21T22:10:32.658Z,78.80
2019-02-21T22:12:58.876Z,78.71
2019-02-21T22:15:25.089Z,78.58
2019-02-21T22:17:51.400Z,78.66
2019-02-21T22:20:17.845Z,78.72
2019-02-21T22:22:44.354Z,78.94
2019-02-21T22:25:12.085Z,79.03
2019-02-21T22:27:46.081Z,78.68
2019-02-21T22:30:16.107Z,78.63
2019-02-21T22:32:42.473Z,78.88
2019-02-21T22:35:09.122Z,78.76
2019-02-21T22:37:36.936Z,79.47
2019-02-21T22:40:06.935Z,79.62
2019-02-21T22:42:33.581Z,79.74
2019-02-21T22:44:59.979Z,80.00
2019-02-21T22:47:26.526Z,79.86
2019-02-21T22:49:55.940Z,79.90
2019-02-21T22:52:24.073Z,80.22
2019-02-21T22:54:50.359Z,80.51
2019-02-21T22:57:17.557Z,80.43
2019-02-21T22:59:43.793Z,80.17
2019-02-21T23:02:10.087Z,80.14
2019-02-21T23:04:40.187Z,80.08
2019-02-21T23:07:10.161Z,80.34
2019-02-21T23:09:36.787Z,80.68
2019-02-21T23:12:05.373Z,80.45
2019-02-21T23:14:31.650Z,80.62
2019-02-21T23:16:57.923Z,80.23
2019-02-21T23:19:24.372Z,79.97
2019-02-21T23:21:50.856Z,79.99
2019-02-21T23:24:17.213Z,79.88
2019-02-21T23:26:43.542Z,80.57
2019-02-21T23:29:10.914Z,80.73
2019-02-21T23:31:37.433Z,80.75
2019-02-21T23:34:06.980Z,80.57
2019-02-21T23:36:33.463Z,80.45
2019-02-21T23:38:59.747Z,80.63
2019-02-21T23:41:26.052Z,80.57
2019-02-21T23:43:52.346Z,80.45
2019-02-21T23:46:18.616Z,80.20
2019-02-21T23:48:44.842Z,80.01
2019-02-21T23:51:11.185Z,80.18
2019-02-21T23:53:37.477Z,80.27
2019-02-21T23:56:05.713Z,80.32
2019-02-21T23:58:32.016Z,80.71
